createdAt,value
2023-05-25T00:00:49.841Z,15.89
2023-05-25T00:03:06.504Z,15.84
2023-05-25T00:05:11.461Z,15.82
2023-05-25T00:07:13.495Z,15.78
2023-05-25T00:09:15.092Z,15.76
2023-05-25T00:11:19.673Z,15.75
2023-05-25T00:13:21.400Z,15.71
2023-05-25T00:15:25.397Z,15.69
2023-05-25T00:17:33.690Z,15.66
2023-05-25T00:19:36.037Z,15.63
2023-05-25T00:21:43.448Z,15.60
2023-05-25T00:23:44.943Z,15.58
2023-05-25T00:25:46.888Z,15.55
2023-05-25T00:27:48.491Z,15.53
2023-05-25T00:29:50.138Z,15.49
2023-05-25T00:31:52.731Z,15.46
2023-05-25T00:34:00.610Z,15.44
2023-05-25T00:36:03.358Z,15.41
2023-05-25T00:38:05.273Z,15.38
2023-05-25T00:40:10.696Z,15.35
2023-05-25T00:42:12.401Z,15.32
2023-05-25T00:44:17.397Z,15.29
2023-05-25T00:46:23.443Z,15.25
2023-05-25T00:48:28.019Z,15.21
2023-05-25T00:50:43.372Z,15.18
2023-05-25T00:52:50.696Z,15.15
2023-05-25T00:54:59.848Z,15.11
2023-05-25T00:57:04.133Z,15.08
2023-05-25T00:59:08.279Z,15.05
2023-05-25T01:01:13.590Z,15.02
2023-05-25T01:03:21.835Z,14.99
2023-05-25T01:05:29.122Z,14.96
2023-05-25T01:07:32.841Z,14.94
2023-05-25T01:09:36.602Z,14.91
2023-05-25T01:11:42.178Z,14.88
2023-05-25T01:13:44.352Z,14.86
2023-05-25T01:15:47.519Z,14.82
2023-05-25T01:18:02.759Z,14.80
2023-05-25T01:20:11.265Z,14.76
2023-05-25T01:22:19.116Z,14.73
2023-05-25T01:24:32.234Z,14.69
2023-05-25T01:26:38.489Z,14.67
2023-05-25T01:28:46.762Z,14.62
2023-05-25T01:30:50.745Z,14.60
2023-05-25T01:32:56.722Z,14.56
2023-05-25T01:35:01.288Z,14.52
2023-05-25T01:37:03.165Z,14.49
2023-05-25T01:39:07.251Z,14.47
2023-05-25T01:41:12.215Z,14.43
2023-05-25T01:43:13.892Z,14.41
2023-05-25T01:45:19.666Z,14.39
2023-05-25T01:47:40.912Z,14.33
2023-05-25T01:50:06.387Z,14.28
2023-05-25T01:52:28.024Z,14.27
2023-05-25T01:54:50.409Z,14.23
2023-05-25T01:56:56.571Z,14.18
2023-05-25T01:58:59.032Z,14.16
2023-05-25T02:01:08.698Z,14.14
2023-05-25T02:03:10.883Z,14.10
2023-05-25T02:05:13.283Z,14.08
2023-05-25T02:07:17.272Z,14.06
2023-05-25T02:09:19.522Z,14.03
2023-05-25T02:11:21.874Z,14.00
2023-05-25T02:13:23.724Z,13.97
2023-05-25T02:15:25.724Z,13.95
2023-05-25T02:17:27.991Z,13.92
2023-05-25T02:19:30.194Z,13.90
2023-05-25T02:21:32.657Z,13.88
2023-05-25T02:23:38.226Z,13.84
2023-05-25T02:25:44.995Z,13.82
2023-05-25T02:27:48.585Z,13.80
2023-05-25T02:29:50.971Z,13.77
2023-05-25T02:31:52.574Z,13.73
2023-05-25T02:33:54.191Z,13.72
2023-05-25T02:35:56.154Z,13.70
2023-05-25T02:37:57.652Z,13.67
2023-05-25T02:39:59.494Z,13.64
2023-05-25T02:42:01.576Z,13.63
2023-05-25T02:44:03.456Z,13.61
2023-05-25T02:46:06.428Z,13.59
2023-05-25T02:48:08.542Z,13.56
2023-05-25T02:50:10.557Z,13.54
2023-05-25T02:52:17.836Z,13.52
2023-05-25T02:54:20.756Z,13.48
2023-05-25T02:56:24.839Z,13.47
2023-05-25T02:58:26.404Z,13.44
2023-05-25T03:00:50.796Z,13.41
2023-05-25T03:02:52.880Z,13.38
2023-05-25T03:04:54.731Z,13.36
2023-05-25T03:06:56.457Z,13.33
2023-05-25T03:08:57.945Z,13.31
2023-05-25T03:10:59.845Z,13.30
2023-05-25T03:13:01.734Z,13.27
2023-05-25T03:15:04.666Z,13.25
2023-05-25T03:17:06.491Z,13.24
2023-05-25T03:19:08.572Z,13.21
2023-05-25T03:21:12.278Z,13.18
2023-05-25T03:23:14.027Z,13.17
2023-05-25T03:25:18.316Z,13.15
2023-05-25T03:27:20.141Z,13.13
2023-05-25T03:29:22.970Z,13.11
2023-05-25T03:31:24.745Z,13.09
2023-05-25T03:33:26.590Z,13.07
2023-05-25T03:35:28.719Z,13.05
2023-05-25T03:37:30.390Z,13.03
2023-05-25T03:39:33.671Z,13.02
2023-05-25T03:41:35.261Z,12.99
2023-05-25T03:43:36.875Z,12.99
2023-05-25T03:45:40.560Z,12.96
2023-05-25T03:47:42.366Z,12.95
2023-05-25T03:49:43.993Z,12.95
2023-05-25T03:51:45.516Z,12.93
2023-05-25T03:53:48.088Z,12.91
2023-05-25T03:55:52.095Z,12.90
2023-05-25T03:57:53.850Z,12.87
2023-05-25T03:59:56.370Z,12.86
2023-05-25T04:01:59.456Z,12.87
2023-05-25T04:04:03.263Z,12.85
2023-05-25T04:06:05.035Z,12.85
2023-05-25T04:08:10.754Z,12.84
2023-05-25T04:10:12.568Z,12.83
2023-05-25T04:12:14.434Z,12.83
2023-05-25T04:14:21.365Z,12.83
2023-05-25T04:16:23.562Z,12.83
2023-05-25T04:18:25.219Z,12.82
2023-05-25T04:20:26.917Z,12.82
2023-05-25T04:22:28.536Z,12.81
2023-05-25T04:24:35.365Z,12.81
2023-05-25T04:26:39.649Z,12.80
2023-05-25T04:28:41.890Z,12.81
2023-05-25T04:31:03.863Z,12.80
2023-05-25T04:33:24.721Z,12.80
2023-05-25T04:35:46.839Z,12.81
2023-05-25T04:37:49.045Z,12.83
2023-05-25T04:39:51.404Z,12.85
2023-05-25T04:41:53.431Z,12.86
2023-05-25T04:44:07.959Z,12.87
2023-05-25T04:46:16.955Z,12.88
2023-05-25T04:48:19.414Z,12.89
2023-05-25T04:50:21.878Z,12.90
2023-05-25T04:52:23.557Z,12.92
2023-05-25T04:54:25.453Z,12.94
2023-05-25T04:56:29.166Z,12.96
2023-05-25T04:58:33.530Z,12.98
2023-05-25T05:00:41.019Z,13.01
2023-05-25T05:02:44.403Z,13.02
2023-05-25T05:04:48.363Z,13.10
2023-05-25T05:06:50.011Z,13.13
2023-05-25T05:08:54.813Z,13.15
2023-05-25T05:10:57.041Z,13.17
2023-05-25T05:13:00.088Z,13.20
2023-05-25T05:15:02.054Z,13.24
2023-05-25T05:17:04.503Z,13.28
2023-05-25T05:19:06.288Z,13.33
2023-05-25T05:21:07.933Z,13.39
2023-05-25T05:23:16.930Z,13.46
2023-05-25T05:25:19.002Z,13.52
2023-05-25T05:27:22.446Z,13.58
2023-05-25T05:29:29.718Z,13.64
2023-05-25T05:31:32.176Z,13.72
2023-05-25T05:33:34.240Z,13.84
2023-05-25T05:35:36.893Z,13.96
2023-05-25T05:37:48.458Z,14.09
2023-05-25T05:39:52.406Z,14.20
2023-05-25T05:41:54.935Z,14.32
2023-05-25T05:43:56.548Z,14.43
2023-05-25T05:45:58.058Z,14.55
2023-05-25T05:47:59.642Z,14.68
2023-05-25T05:50:02.067Z,14.81
2023-05-25T05:52:05.494Z,14.95
2023-05-25T05:54:07.378Z,15.09
2023-05-25T05:56:17.557Z,15.24
2023-05-25T05:58:22.339Z,15.41
2023-05-25T06:00:24.590Z,15.57
2023-05-25T06:02:26.902Z,15.73
2023-05-25T06:04:29.239Z,15.92
2023-05-25T06:06:34.947Z,16.09
2023-05-25T06:08:36.890Z,16.27
2023-05-25T06:10:38.650Z,16.44
2023-05-25T06:12:48.667Z,16.63
2023-05-25T06:14:52.213Z,16.81
2023-05-25T06:16:54.404Z,17.00
2023-05-25T06:18:56.353Z,17.18
2023-05-25T06:20:58.093Z,17.36
2023-05-25T06:22:59.711Z,17.54
2023-05-25T06:25:01.803Z,17.71
2023-05-25T06:27:03.747Z,17.90
2023-05-25T06:29:09.003Z,18.06
2023-05-25T06:31:10.733Z,18.23
2023-05-25T06:33:12.966Z,18.38
2023-05-25T06:35:19.639Z,18.55
2023-05-25T06:37:27.452Z,18.70
2023-05-25T06:39:32.599Z,18.86
2023-05-25T06:41:38.625Z,19.02
2023-05-25T06:43:40.396Z,19.15
2023-05-25T06:45:50.769Z,19.31
2023-05-25T06:47:54.298Z,19.45
2023-05-25T06:49:56.714Z,19.59
2023-05-25T06:51:58.311Z,19.72
2023-05-25T06:54:00.299Z,19.85
2023-05-25T06:56:01.895Z,19.97
2023-05-25T06:58:03.763Z,20.07
2023-05-25T07:00:09.672Z,20.18
2023-05-25T07:02:11.590Z,20.29
2023-05-25T07:04:13.349Z,20.38
2023-05-25T07:06:19.823Z,20.47
2023-05-25T07:08:21.372Z,20.55
2023-05-25T07:10:22.901Z,20.63
2023-05-25T07:12:27.065Z,20.70
2023-05-25T07:14:28.861Z,20.78
2023-05-25T07:16:31.970Z,20.87
2023-05-25T07:18:33.612Z,20.94
2023-05-25T07:20:38.615Z,21.02
2023-05-25T07:22:40.426Z,21.11
2023-05-25T07:24:41.974Z,21.18
2023-05-25T07:26:44.538Z,21.28
2023-05-25T07:28:46.444Z,21.36
2023-05-25T07:30:53.556Z,21.46
2023-05-25T07:32:55.261Z,21.57
2023-05-25T07:34:56.978Z,21.67
2023-05-25T07:36:58.674Z,21.78
2023-05-25T07:39:00.280Z,21.86
2023-05-25T07:41:03.234Z,21.97
2023-05-25T07:43:08.108Z,22.07
2023-05-25T07:45:11.194Z,22.17
2023-05-25T07:47:12.868Z,22.26
2023-05-25T07:49:17.712Z,22.37
2023-05-25T07:51:22.280Z,22.46
2023-05-25T07:53:24.188Z,22.55
2023-05-25T07:55:26.859Z,22.67
2023-05-25T07:57:29.678Z,22.77
2023-05-25T07:59:31.315Z,22.87
2023-05-25T08:01:32.978Z,22.96
2023-05-25T08:03:48.149Z,23.07
2023-05-25T08:05:54.170Z,23.20
2023-05-25T08:07:57.857Z,23.31
2023-05-25T08:09:59.900Z,23.41
2023-05-25T08:12:24.149Z,23.52
2023-05-25T08:14:23.926Z,23.64
2023-05-25T08:16:26.061Z,23.73
2023-05-25T08:18:27.565Z,23.83
2023-05-25T08:20:29.363Z,23.93
2023-05-25T08:22:30.881Z,24.03
2023-05-25T08:24:32.725Z,24.12
2023-05-25T08:26:53.055Z,24.23
2023-05-25T08:28:56.469Z,24.34
2023-05-25T08:30:58.789Z,24.43
2023-05-25T08:33:00.558Z,24.54
2023-05-25T08:35:03.756Z,24.63
2023-05-25T08:37:07.010Z,24.74
2023-05-25T08:39:09.275Z,24.83
2023-05-25T08:41:17.436Z,24.94
2023-05-25T08:43:19.060Z,25.05
2023-05-25T08:45:34.384Z,25.14
2023-05-25T08:47:42.644Z,25.27
2023-05-25T08:49:45.195Z,25.38
2023-05-25T08:51:51.965Z,25.49
2023-05-25T08:53:55.178Z,25.61
2023-05-25T08:55:58.867Z,25.71
2023-05-25T08:58:07.282Z,25.81
2023-05-25T09:00:11.527Z,25.94
2023-05-25T09:02:26.897Z,26.06
2023-05-25T09:04:29.784Z,26.21
2023-05-25T09:06:36.808Z,26.33
2023-05-25T09:08:42.101Z,26.47
2023-05-25T09:10:43.919Z,26.59
2023-05-25T09:12:46.639Z,26.69
2023-05-25T09:14:49.379Z,26.82
2023-05-25T09:16:51.230Z,26.92
2023-05-25T09:18:52.857Z,27.01
2023-05-25T09:20:55.434Z,27.10
2023-05-25T09:23:01.007Z,27.22
2023-05-25T09:25:08.327Z,27.35
2023-05-25T09:27:17.508Z,27.46
2023-05-25T09:29:19.677Z,27.57
2023-05-25T09:31:23.945Z,27.66
2023-05-25T09:33:26.508Z,27.78
2023-05-25T09:35:31.384Z,27.88
2023-05-25T09:37:33.218Z,27.97
2023-05-25T09:39:35.682Z,28.07
2023-05-25T09:41:41.023Z,28.16
2023-05-25T09:43:48.843Z,28.25
2023-05-25T09:45:56.361Z,28.32
2023-05-25T09:48:01.758Z,28.40
2023-05-25T09:50:04.244Z,28.49
2023-05-25T09:52:07.119Z,28.58
2023-05-25T09:54:12.595Z,28.66
2023-05-25T09:56:14.426Z,28.75
2023-05-25T09:58:16.247Z,28.83
2023-05-25T10:00:18.298Z,28.92
2023-05-25T10:02:19.996Z,29.01
2023-05-25T10:04:21.591Z,29.07
2023-05-25T10:06:26.943Z,29.14
2023-05-25T10:08:30.152Z,29.24
2023-05-25T10:10:32.786Z,29.33
2023-05-25T10:12:35.320Z,29.44
2023-05-25T10:14:38.627Z,29.54
2023-05-25T10:16:42.287Z,29.64
2023-05-25T10:18:49.721Z,29.75
2023-05-25T10:20:57.204Z,29.83
2023-05-25T10:23:10.830Z,29.89
2023-05-25T10:25:26.148Z,29.95
2023-05-25T10:27:38.653Z,30.00
2023-05-25T10:29:40.622Z,30.08
2023-05-25T10:31:42.850Z,30.14
2023-05-25T10:33:49.178Z,30.22
2023-05-25T10:36:09.070Z,30.26
2023-05-25T10:38:15.929Z,30.35
2023-05-25T10:40:19.273Z,30.39
2023-05-25T10:42:21.011Z,30.45
2023-05-25T10:44:23.242Z,30.51
2023-05-25T10:46:26.082Z,30.55
2023-05-25T10:48:38.538Z,30.59
2023-05-25T10:50:40.524Z,30.63
2023-05-25T10:52:57.871Z,30.71
2023-05-25T10:55:04.781Z,30.77
2023-05-25T10:57:11.168Z,30.85
2023-05-25T10:59:13.555Z,30.90
2023-05-25T11:01:16.269Z,30.96
2023-05-25T11:03:20.838Z,30.99
2023-05-25T11:05:31.288Z,31.04
2023-05-25T11:07:55.875Z,31.11
2023-05-25T11:09:59.367Z,31.19
2023-05-25T11:12:03.520Z,31.24
2023-05-25T11:14:05.352Z,31.27
2023-05-25T11:16:26.313Z,31.29
2023-05-25T11:18:38.083Z,31.36
2023-05-25T11:20:40.266Z,31.42
2023-05-25T11:22:42.479Z,31.48
2023-05-25T11:24:50.352Z,31.53
2023-05-25T11:26:57.283Z,31.59
2023-05-25T11:29:00.473Z,31.65
2023-05-25T11:31:09.696Z,31.75
2023-05-25T11:33:21.726Z,31.74
2023-05-25T11:35:24.896Z,31.77
2023-05-25T11:37:31.336Z,31.79
2023-05-25T11:39:33.292Z,31.82
2023-05-25T11:41:36.440Z,31.87
2023-05-25T11:43:38.368Z,31.89
2023-05-25T11:45:40.197Z,31.92
2023-05-25T11:47:42.023Z,31.94
2023-05-25T11:49:46.167Z,31.97
2023-05-25T11:51:48.024Z,32.01
2023-05-25T11:53:50.049Z,32.02
2023-05-25T11:55:55.602Z,32.01
2023-05-25T11:58:05.848Z,32.02
2023-05-25T12:00:11.372Z,32.02
2023-05-25T12:02:17.660Z,32.05
2023-05-25T12:04:21.725Z,32.06
2023-05-25T12:06:34.168Z,32.08
2023-05-25T12:08:36.540Z,32.10
2023-05-25T12:10:50.342Z,32.09
2023-05-25T12:12:53.137Z,32.13
2023-05-25T12:14:55.351Z,32.13
2023-05-25T12:16:58.465Z,32.14
2023-05-25T12:19:01.897Z,32.14
2023-05-25T12:21:08.275Z,32.18
2023-05-25T12:23:10.229Z,32.18
2023-05-25T12:25:12.937Z,32.22
2023-05-25T12:27:23.037Z,32.25
2023-05-25T12:29:28.243Z,32.27
2023-05-25T12:31:35.200Z,32.24
2023-05-25T12:33:37.074Z,32.24
2023-05-25T12:35:50.175Z,32.24
2023-05-25T12:38:10.674Z,32.24
2023-05-25T12:40:20.720Z,32.27
2023-05-25T12:42:22.690Z,32.31
2023-05-25T12:44:31.338Z,32.34
2023-05-25T12:46:33.367Z,32.36
2023-05-25T12:48:35.027Z,32.38
2023-05-25T12:50:37.168Z,32.40
2023-05-25T12:52:44.367Z,32.42
2023-05-25T12:54:47.111Z,32.44
2023-05-25T12:56:56.693Z,32.42
2023-05-25T12:59:14.511Z,32.44
2023-05-25T13:01:16.705Z,32.45
2023-05-25T13:03:18.389Z,32.44
2023-05-25T13:05:31.263Z,32.43
2023-05-25T13:07:33.424Z,32.44
2023-05-25T13:09:35.867Z,32.44
2023-05-25T13:11:37.845Z,32.45
2023-05-25T13:13:39.438Z,32.43
2023-05-25T13:15:41.218Z,32.43
2023-05-25T13:17:43.825Z,32.44
2023-05-25T13:19:46.037Z,32.44
2023-05-25T13:21:52.212Z,32.41
2023-05-25T13:23:54.480Z,32.43
2023-05-25T13:25:56.062Z,32.42
2023-05-25T13:27:58.288Z,32.42
2023-05-25T13:30:00.254Z,32.44
2023-05-25T13:32:04.787Z,32.43
2023-05-25T13:34:06.852Z,32.42
2023-05-25T13:36:09.085Z,32.43
2023-05-25T13:38:11.676Z,32.40
2023-05-25T13:40:16.322Z,32.39
2023-05-25T13:42:18.353Z,32.36
2023-05-25T13:44:20.068Z,32.33
2023-05-25T13:46:33.533Z,32.31
2023-05-25T13:48:36.654Z,32.28
2023-05-25T13:50:38.377Z,32.25
2023-05-25T13:52:39.857Z,32.23
2023-05-25T13:54:41.681Z,32.21
2023-05-25T13:56:43.251Z,32.20
2023-05-25T13:58:45.009Z,32.17
2023-05-25T14:00:47.609Z,32.14
2023-05-25T14:02:49.355Z,32.11
2023-05-25T14:04:51.003Z,32.07
2023-05-25T14:06:52.523Z,32.01
2023-05-25T14:08:54.267Z,31.95
2023-05-25T14:10:56.281Z,31.92
2023-05-25T14:12:58.654Z,31.88
2023-05-25T14:15:00.396Z,31.85
2023-05-25T14:17:10.547Z,31.80
2023-05-25T14:19:18.121Z,31.75
2023-05-25T14:21:19.905Z,31.71
2023-05-25T14:23:21.758Z,31.66
2023-05-25T14:25:23.281Z,31.62
2023-05-25T14:27:25.283Z,31.57
2023-05-25T14:29:29.317Z,31.52
2023-05-25T14:31:31.346Z,31.48
2023-05-25T14:33:32.975Z,31.44
2023-05-25T14:35:34.634Z,31.39
2023-05-25T14:37:36.478Z,31.36
2023-05-25T14:39:38.270Z,31.30
2023-05-25T14:41:42.764Z,31.25
2023-05-25T14:43:44.334Z,31.23
2023-05-25T14:45:49.551Z,31.19
2023-05-25T14:48:03.802Z,31.15
2023-05-25T14:50:16.087Z,31.09
2023-05-25T14:52:19.343Z,31.03
2023-05-25T14:54:21.753Z,30.99
2023-05-25T14:56:24.798Z,30.94
2023-05-25T14:58:26.527Z,30.88
2023-05-25T15:00:31.306Z,30.81
2023-05-25T15:02:33.068Z,30.77
2023-05-25T15:04:34.768Z,30.71
2023-05-25T15:06:36.940Z,30.65
2023-05-25T15:08:38.673Z,30.59
2023-05-25T15:10:40.344Z,30.54
2023-05-25T15:12:41.969Z,30.51
2023-05-25T15:14:43.550Z,30.47
2023-05-25T15:16:45.848Z,30.42
2023-05-25T15:18:47.475Z,30.37
2023-05-25T15:20:49.301Z,30.31
2023-05-25T15:22:53.673Z,30.27
2023-05-25T15:24:55.382Z,30.22
2023-05-25T15:26:57.026Z,30.15
2023-05-25T15:28:58.562Z,30.10
2023-05-25T15:31:02.856Z,30.06
2023-05-25T15:33:05.212Z,30.01
2023-05-25T15:35:07.347Z,29.95
2023-05-25T15:37:10.662Z,29.93
2023-05-25T15:39:14.697Z,29.90
2023-05-25T15:41:24.297Z,29.87
2023-05-25T15:43:28.502Z,29.84
2023-05-25T15:45:30.327Z,29.81
2023-05-25T15:47:31.953Z,29.77
2023-05-25T15:49:36.967Z,29.74
2023-05-25T15:51:44.403Z,29.70
2023-05-25T15:53:46.487Z,29.65
2023-05-25T15:55:48.229Z,29.60
2023-05-25T15:57:52.653Z,29.57
2023-05-25T15:59:54.906Z,29.55
2023-05-25T16:01:56.760Z,29.51
2023-05-25T16:03:58.775Z,29.48
2023-05-25T16:06:00.292Z,29.43
2023-05-25T16:08:04.101Z,29.37
2023-05-25T16:10:06.502Z,29.31
2023-05-25T16:12:08.343Z,29.27
2023-05-25T16:14:09.905Z,29.22
2023-05-25T16:16:11.431Z,29.20
2023-05-25T16:18:13.102Z,29.15
2023-05-25T16:20:14.944Z,29.11
2023-05-25T16:22:16.553Z,29.07
2023-05-25T16:24:18.173Z,29.00
2023-05-25T16:26:19.858Z,28.95
2023-05-25T16:28:21.523Z,28.92
2023-05-25T16:30:26.100Z,28.87
2023-05-25T16:32:28.950Z,28.84
2023-05-25T16:34:32.601Z,28.78
2023-05-25T16:36:34.499Z,28.72
2023-05-25T16:38:36.170Z,28.68
2023-05-25T16:40:37.878Z,28.64
2023-05-25T16:42:39.630Z,28.58
2023-05-25T16:44:43.281Z,28.56
2023-05-25T16:46:48.166Z,28.51
2023-05-25T16:48:52.715Z,28.48
2023-05-25T16:50:54.421Z,28.44
2023-05-25T16:52:56.951Z,28.41
2023-05-25T16:55:02.159Z,28.36
2023-05-25T16:57:03.939Z,28.31
2023-05-25T16:59:05.433Z,28.27
2023-05-25T17:01:11.541Z,28.24
2023-05-25T17:03:16.405Z,28.20
2023-05-25T17:05:18.202Z,28.18
2023-05-25T17:07:19.830Z,28.13
2023-05-25T17:09:21.316Z,28.09
2023-05-25T17:11:26.458Z,28.05
2023-05-25T17:13:31.186Z,28.01
2023-05-25T17:15:32.860Z,27.99
2023-05-25T17:17:34.416Z,27.96
2023-05-25T17:19:36.636Z,27.92
2023-05-25T17:21:38.434Z,27.91
2023-05-25T17:23:40.353Z,27.86
2023-05-25T17:25:42.701Z,27.82
2023-05-25T17:27:44.466Z,27.78
2023-05-25T17:29:46.069Z,27.75
2023-05-25T17:31:53.137Z,27.71
2023-05-25T17:33:55.108Z,27.68
2023-05-25T17:36:01.189Z,27.64
2023-05-25T17:38:02.841Z,27.57
2023-05-25T17:40:05.555Z,27.55
2023-05-25T17:42:07.522Z,27.50
2023-05-25T17:44:09.037Z,27.46
2023-05-25T17:46:10.863Z,27.42
2023-05-25T17:48:12.503Z,27.38
2023-05-25T17:50:35.981Z,27.33
2023-05-25T17:52:40.023Z,27.32
2023-05-25T17:54:41.667Z,27.28
2023-05-25T17:56:43.362Z,27.25
2023-05-25T17:58:47.582Z,27.20
2023-05-25T18:00:55.416Z,27.19
2023-05-25T18:02:57.400Z,27.14
2023-05-25T18:04:58.967Z,27.08
2023-05-25T18:07:06.569Z,27.01
2023-05-25T18:09:08.086Z,26.96
2023-05-25T18:11:09.705Z,26.92
2023-05-25T18:13:11.200Z,26.89
2023-05-25T18:15:12.895Z,26.83
2023-05-25T18:17:14.592Z,26.81
2023-05-25T18:19:17.861Z,26.77
2023-05-25T18:21:19.621Z,26.71
2023-05-25T18:23:22.385Z,26.67
2023-05-25T18:25:24.131Z,26.62
2023-05-25T18:27:25.801Z,26.58
2023-05-25T18:29:30.095Z,26.53
2023-05-25T18:31:33.212Z,26.47
2023-05-25T18:33:35.987Z,26.43
2023-05-25T18:35:38.647Z,26.38
2023-05-25T18:37:48.990Z,26.33
2023-05-25T18:39:51.630Z,26.27
2023-05-25T18:41:53.240Z,26.23
2023-05-25T18:43:55.134Z,26.28
2023-05-25T18:45:56.780Z,26.20
2023-05-25T18:47:58.920Z,26.13
2023-05-25T18:50:01.010Z,26.08
2023-05-25T18:52:03.254Z,26.02
2023-05-25T18:54:10.022Z,25.97
2023-05-25T18:56:12.277Z,25.91
2023-05-25T18:58:14.176Z,25.85
2023-05-25T19:00:17.369Z,25.80
2023-05-25T19:02:22.001Z,25.76
2023-05-25T19:04:23.800Z,25.71
2023-05-25T19:06:25.891Z,25.67
2023-05-25T19:08:27.506Z,25.62
2023-05-25T19:10:29.255Z,25.57
2023-05-25T19:12:32.421Z,25.51
2023-05-25T19:14:37.311Z,25.47
2023-05-25T19:16:38.924Z,25.66
2023-05-25T19:18:40.740Z,25.56
2023-05-25T19:20:42.541Z,25.45
2023-05-25T19:22:48.589Z,25.37
2023-05-25T19:25:00.731Z,25.32
2023-05-25T19:27:03.007Z,25.26
2023-05-25T19:29:08.105Z,25.20
2023-05-25T19:31:10.081Z,25.14
2023-05-25T19:33:13.792Z,25.09
2023-05-25T19:35:19.803Z,25.05
2023-05-25T19:37:21.358Z,24.99
2023-05-25T19:39:22.882Z,24.94
2023-05-25T19:41:27.839Z,24.91
2023-05-25T19:43:32.450Z,24.84
2023-05-25T19:47:59.387Z,24.71
2023-05-25T19:50:04.860Z,24.67
2023-05-25T19:52:06.526Z,24.61
2023-05-25T19:54:08.193Z,24.71
2023-05-25T19:56:09.765Z,24.62
2023-05-25T19:58:11.453Z,24.56
2023-05-25T20:00:21.359Z,24.55
2023-05-25T20:02:27.742Z,24.47
2023-05-25T20:04:34.404Z,24.40
2023-05-25T20:06:39.897Z,24.33
2023-05-25T20:08:43.772Z,24.27
2023-05-25T20:10:45.943Z,24.22
2023-05-25T20:12:47.573Z,24.17
2023-05-25T20:14:51.522Z,24.10
2023-05-25T20:16:55.709Z,24.06
2023-05-25T20:18:57.510Z,24.01
2023-05-25T20:20:59.395Z,23.97
2023-05-25T20:23:01.449Z,23.93
2023-05-25T20:25:03.084Z,23.88
2023-05-25T20:27:08.005Z,23.83
2023-05-25T20:29:09.604Z,23.76
2023-05-25T20:31:11.673Z,23.72
2023-05-25T20:33:14.588Z,23.68
2023-05-25T20:35:20.558Z,23.63
2023-05-25T20:37:22.281Z,23.59
2023-05-25T20:39:23.780Z,23.53
2023-05-25T20:41:25.277Z,23.48
2023-05-25T20:43:29.360Z,23.43
2023-05-25T20:45:30.959Z,23.39
2023-05-25T20:47:35.582Z,23.33
2023-05-25T20:49:37.147Z,23.30
2023-05-25T20:51:40.502Z,23.24
2023-05-25T20:53:42.263Z,23.18
2023-05-25T20:55:44.089Z,23.15
2023-05-25T20:57:46.304Z,23.10
2023-05-25T20:59:48.835Z,23.04
2023-05-25T21:01:50.647Z,23.00
2023-05-25T21:03:54.774Z,22.95
2023-05-25T21:05:56.529Z,22.89
2023-05-25T21:08:01.555Z,22.86
2023-05-25T21:10:30.718Z,22.78
2023-05-25T21:12:37.204Z,22.74
2023-05-25T21:14:39.991Z,22.69
2023-05-25T21:16:41.688Z,22.65
2023-05-25T21:18:43.475Z,22.60
2023-05-25T21:20:45.374Z,22.56
2023-05-25T21:22:47.185Z,22.50
2023-05-25T21:24:50.007Z,22.45
2023-05-25T21:26:51.789Z,22.41
2023-05-25T21:28:53.483Z,22.34
2023-05-25T21:30:56.571Z,22.30
2023-05-25T21:32:58.496Z,22.24
2023-05-25T21:35:02.315Z,22.19
2023-05-25T21:37:04.471Z,22.13
2023-05-25T21:39:06.182Z,22.08
2023-05-25T21:41:09.342Z,22.04
2023-05-25T21:43:11.416Z,21.97
2023-05-25T21:45:13.556Z,21.92
2023-05-25T21:47:15.794Z,21.86
2023-05-25T21:49:17.800Z,21.82
2023-05-25T21:51:19.752Z,21.77
2023-05-25T21:53:22.247Z,21.72
2023-05-25T21:55:24.619Z,21.67
2023-05-25T21:57:26.172Z,21.62
2023-05-25T21:59:27.863Z,21.58
2023-05-25T22:01:30.142Z,21.51
2023-05-25T22:03:34.537Z,21.47
2023-05-25T22:05:36.385Z,21.42
2023-05-25T22:07:42.610Z,21.38
2023-05-25T22:09:44.833Z,21.33
2023-05-25T22:11:46.689Z,21.29
2023-05-25T22:13:49.593Z,21.25
2023-05-25T22:15:51.346Z,21.21
2023-05-25T22:17:53.091Z,21.17
2023-05-25T22:20:06.451Z,21.13
2023-05-25T22:22:08.753Z,21.08
2023-05-25T22:24:13.771Z,21.05
2023-05-25T22:26:15.795Z,21.01
2023-05-25T22:28:18.586Z,20.96
2023-05-25T22:30:23.269Z,20.92
2023-05-25T22:32:25.449Z,20.89
2023-05-25T22:34:29.780Z,20.83
2023-05-25T22:36:31.440Z,20.79
2023-05-25T22:38:33.291Z,20.75
2023-05-25T22:40:34.950Z,20.70
2023-05-25T22:42:36.690Z,20.68
2023-05-25T22:44:38.715Z,20.63
2023-05-25T22:46:40.564Z,20.59
2023-05-25T22:48:43.478Z,20.55
2023-05-25T22:50:45.218Z,20.50
2023-05-25T22:52:47.781Z,20.46
2023-05-25T22:54:49.436Z,20.41
2023-05-25T22:56:51.391Z,20.37
2023-05-25T22:58:53.176Z,20.33
2023-05-25T23:00:56.406Z,20.28
2023-05-25T23:02:58.300Z,20.23
2023-05-25T23:05:00.431Z,20.19
2023-05-25T23:07:02.748Z,20.15
2023-05-25T23:09:14.145Z,20.11
2023-05-25T23:11:18.449Z,20.06
2023-05-25T23:13:20.406Z,20.03
2023-05-25T23:15:27.413Z,20.00
2023-05-25T23:17:29.135Z,19.96
2023-05-25T23:19:33.329Z,19.93
2023-05-25T23:21:35.149Z,19.91
2023-05-25T23:23:36.859Z,19.88
2023-05-25T23:25:39.952Z,19.86
2023-05-25T23:27:41.890Z,19.82
2023-05-25T23:29:43.405Z,19.80
2023-05-25T23:31:45.213Z,19.77
2023-05-25T23:33:47.069Z,19.74
2023-05-25T23:35:48.994Z,19.72
2023-05-25T23:37:52.083Z,19.69
2023-05-25T23:39:53.968Z,19.67
2023-05-25T23:41:55.721Z,19.63
2023-05-25T23:43:57.847Z,19.62
2023-05-25T23:46:02.705Z,19.59
2023-05-25T23:48:04.812Z,19.57
2023-05-25T23:50:07.259Z,19.53
2023-05-25T23:52:11.300Z,19.51
2023-05-25T23:54:13.088Z,19.48
2023-05-25T23:56:14.753Z,19.44
2023-05-25T23:58:19.756Z,19.43
